createdAt,value
2022-11-28T00:01:30.911Z,28.10
2022-11-28T00:04:00.329Z,34.03
2022-11-28T00:06:28.425Z,34.42
2022-11-28T00:08:59.272Z,36.28
2022-11-28T00:11:27.301Z,32.03
2022-11-28T00:13:55.535Z,32.25
2022-11-28T00:16:24.828Z,33.15
2022-11-28T00:18:56.137Z,35.50
2022-11-28T00:21:25.558Z,34.25
2022-11-28T00:23:54.289Z,35.83
2022-11-28T00:26:25.466Z,35.92
2022-11-28T00:28:54.029Z,27.85
2022-11-28T00:31:23.861Z,31.48
2022-11-28T00:33:52.354Z,35.17
2022-11-28T00:36:21.027Z,39.72
2022-11-28T00:38:50.632Z,37.70
2022-11-28T00:41:21.033Z,30.45
2022-11-28T00:43:50.075Z,30.65
2022-11-28T00:46:19.377Z,32.72
2022-11-28T00:48:47.580Z,35.17
2022-11-28T00:51:17.495Z,35.25
2022-11-28T00:53:47.997Z,32.70
2022-11-28T00:56:22.919Z,32.47
2022-11-28T00:58:51.684Z,32.85
2022-11-28T01:01:21.854Z,35.70
2022-11-28T01:03:51.976Z,34.08
2022-11-28T01:06:24.286Z,33.72
2022-11-28T01:08:52.908Z,31.63
2022-11-28T01:11:22.935Z,34.08
2022-11-28T01:13:50.842Z,34.65
2022-11-28T01:16:18.887Z,32.25
2022-11-28T01:18:46.944Z,31.00
2022-11-28T01:21:15.168Z,33.42
2022-11-28T01:23:45.338Z,33.15
2022-11-28T01:26:19.256Z,32.50
2022-11-28T01:28:49.044Z,31.13
2022-11-28T01:31:18.958Z,32.25
2022-11-28T01:33:46.954Z,34.17
2022-11-28T01:36:15.758Z,33.72
2022-11-28T01:38:43.976Z,24.38
2022-11-28T01:41:12.130Z,26.70
2022-11-28T01:44:00.141Z,34.78
2022-11-28T01:46:28.287Z,26.55
2022-11-28T01:48:59.476Z,27.73
2022-11-28T01:51:27.992Z,26.98
2022-11-28T01:53:57.072Z,24.30
2022-11-28T01:56:28.442Z,23.25
2022-11-28T01:59:01.019Z,25.05
2022-11-28T02:01:29.273Z,20.75
2022-11-28T02:03:59.792Z,25.98
2022-11-28T02:06:28.815Z,25.00
2022-11-28T02:08:57.173Z,25.83
2022-11-28T02:11:48.326Z,29.63
2022-11-28T02:14:26.927Z,23.02
2022-11-28T02:17:08.700Z,25.50
2022-11-28T02:20:16.950Z,24.20
2022-11-28T02:22:57.409Z,21.80
2022-11-28T02:25:54.786Z,23.75
2022-11-28T02:28:58.184Z,26.15
2022-11-28T02:31:44.745Z,22.30
2022-11-28T02:34:20.766Z,26.90
2022-11-28T02:36:52.593Z,21.52
2022-11-28T02:39:32.753Z,24.92
2022-11-28T02:42:13.507Z,30.08
2022-11-28T02:44:46.450Z,26.00
2022-11-28T02:47:23.971Z,26.33
2022-11-28T02:49:59.530Z,26.38
2022-11-28T02:52:32.099Z,25.65
2022-11-28T02:55:00.994Z,28.33
2022-11-28T02:57:35.971Z,24.30
2022-11-28T03:00:23.842Z,21.55
2022-11-28T03:03:01.564Z,21.58
2022-11-28T03:05:41.717Z,22.15
2022-11-28T03:08:33.128Z,24.40
2022-11-28T03:11:09.336Z,22.10
2022-11-28T03:13:42.770Z,26.42
2022-11-28T03:16:18.867Z,22.90
2022-11-28T03:18:54.201Z,23.60
2022-11-28T03:21:33.892Z,21.63
2022-11-28T03:24:07.499Z,23.88
2022-11-28T03:26:40.950Z,18.83
2022-11-28T03:29:14.440Z,22.90
2022-11-28T03:31:46.122Z,26.45
2022-11-28T03:34:21.149Z,23.88
2022-11-28T03:36:55.134Z,22.25
2022-11-28T03:39:29.075Z,20.88
2022-11-28T03:42:00.982Z,18.75
2022-11-28T03:44:33.214Z,19.40
2022-11-28T03:47:03.604Z,18.95
2022-11-28T03:49:34.690Z,21.77
2022-11-28T03:52:05.697Z,18.50
2022-11-28T03:54:37.594Z,19.02
2022-11-28T03:57:11.523Z,21.10
2022-11-28T03:59:44.824Z,19.08
2022-11-28T04:02:19.683Z,18.38
2022-11-28T04:04:55.615Z,19.77
2022-11-28T04:07:33.096Z,19.92
2022-11-28T04:10:06.195Z,18.75
2022-11-28T04:12:46.131Z,22.42
2022-11-28T04:15:22.267Z,17.10
2022-11-28T04:17:56.747Z,19.13
2022-11-28T04:20:34.343Z,20.13
2022-11-28T04:23:09.294Z,18.98
2022-11-28T04:25:40.872Z,20.95
2022-11-28T04:28:12.996Z,21.67
2022-11-28T04:30:44.145Z,20.05
2022-11-28T04:33:14.714Z,21.60
2022-11-28T04:35:45.551Z,20.98
2022-11-28T04:38:15.857Z,20.75
2022-11-28T04:40:48.367Z,18.60
2022-11-28T04:43:21.936Z,16.67
2022-11-28T04:45:54.963Z,19.17
2022-11-28T04:48:23.263Z,19.13
2022-11-28T04:50:59.151Z,18.92
2022-11-28T04:53:34.619Z,21.15
2022-11-28T04:56:07.702Z,19.80
2022-11-28T04:58:39.445Z,18.92
2022-11-28T05:01:11.510Z,18.48
2022-11-28T05:03:42.825Z,18.10
2022-11-28T05:06:11.983Z,20.23
2022-11-28T05:08:42.287Z,19.95
2022-11-28T05:11:10.330Z,21.42
2022-11-28T05:13:38.265Z,19.23
2022-11-28T05:16:06.931Z,13.48
2022-11-28T05:18:34.875Z,19.92
2022-11-28T05:21:03.129Z,16.40
2022-11-28T05:23:30.932Z,19.88
2022-11-28T05:26:00.080Z,18.25
2022-11-28T05:28:28.180Z,19.95
2022-11-28T05:30:59.120Z,17.65
2022-11-28T05:33:26.935Z,17.33
2022-11-28T05:35:54.717Z,16.08
2022-11-28T05:38:22.699Z,17.85
2022-11-28T05:40:50.714Z,15.15
2022-11-28T05:43:21.088Z,14.13
2022-11-28T05:45:49.072Z,17.15
2022-11-28T05:48:16.956Z,17.95
2022-11-28T05:50:44.933Z,18.27
2022-11-28T05:53:13.465Z,16.38
2022-11-28T05:55:41.845Z,17.23
2022-11-28T05:58:10.134Z,19.55
2022-11-28T06:00:39.698Z,26.10
2022-11-28T06:03:08.251Z,24.73
2022-11-28T06:05:43.536Z,19.27
2022-11-28T06:08:12.753Z,18.75
2022-11-28T06:10:40.679Z,21.58
2022-11-28T06:13:08.486Z,18.25
2022-11-28T06:15:38.504Z,23.88
2022-11-28T06:18:08.300Z,18.20
2022-11-28T06:20:36.592Z,20.52
2022-11-28T06:23:04.443Z,21.92
2022-11-28T06:25:32.556Z,22.67
2022-11-28T06:28:00.404Z,20.05
2022-11-28T06:30:28.265Z,23.42
2022-11-28T06:32:56.088Z,23.73
2022-11-28T06:35:25.523Z,26.48
2022-11-28T06:37:53.435Z,22.73
2022-11-28T06:40:23.520Z,26.10
2022-11-28T06:42:51.616Z,22.15
2022-11-28T06:45:19.591Z,23.08
2022-11-28T06:47:48.141Z,26.35
2022-11-28T06:50:18.551Z,24.58
2022-11-28T06:52:47.721Z,23.20
2022-11-28T06:55:15.756Z,25.17
2022-11-28T06:57:43.898Z,29.83
2022-11-28T07:00:12.798Z,25.33
2022-11-28T07:02:40.709Z,28.67
2022-11-28T07:05:09.385Z,25.75
2022-11-28T07:07:50.257Z,25.77
2022-11-28T07:10:24.767Z,28.98
2022-11-28T07:12:55.618Z,30.90
2022-11-28T07:15:24.039Z,31.70
2022-11-28T07:17:52.236Z,30.88
2022-11-28T07:20:20.669Z,30.77
2022-11-28T07:22:49.465Z,27.83
2022-11-28T07:25:17.964Z,27.33
2022-11-28T07:27:47.093Z,26.50
2022-11-28T07:30:15.780Z,26.75
2022-11-28T07:32:43.620Z,26.52
2022-11-28T07:35:12.220Z,27.85
2022-11-28T07:37:41.943Z,26.83
2022-11-28T07:40:10.067Z,23.55
2022-11-28T07:42:38.042Z,29.60
2022-11-28T07:45:08.196Z,27.05
2022-11-28T07:47:36.072Z,21.13
2022-11-28T07:50:04.409Z,25.38
2022-11-28T07:52:32.177Z,22.15
2022-11-28T07:54:59.962Z,28.77
2022-11-28T07:57:28.009Z,28.20
2022-11-28T07:59:56.134Z,23.13
2022-11-28T08:02:26.054Z,28.50
2022-11-28T08:04:55.382Z,25.90
2022-11-28T08:07:23.560Z,27.42
2022-11-28T08:09:51.664Z,22.05
2022-11-28T08:12:19.539Z,18.92
2022-11-28T08:14:47.541Z,23.25
2022-11-28T08:17:15.341Z,18.17
2022-11-28T08:19:44.746Z,21.40
2022-11-28T08:22:12.527Z,19.20
2022-11-28T08:24:41.274Z,23.65
2022-11-28T08:27:09.500Z,22.13
2022-11-28T08:29:37.268Z,29.40
2022-11-28T08:32:05.379Z,25.00
2022-11-28T08:34:33.168Z,25.67
2022-11-28T08:37:02.327Z,23.27
2022-11-28T08:39:30.282Z,25.52
2022-11-28T08:41:58.964Z,22.55
2022-11-28T08:44:30.411Z,24.85
2022-11-28T08:46:58.544Z,19.77
2022-11-28T08:49:26.338Z,19.13
2022-11-28T08:51:54.192Z,24.58
2022-11-28T08:54:23.604Z,18.80
2022-11-28T08:56:51.501Z,19.63
2022-11-28T08:59:19.236Z,17.00
2022-11-28T09:01:47.147Z,16.00
2022-11-28T09:04:15.354Z,21.55
2022-11-28T09:06:43.304Z,17.02
2022-11-28T09:09:11.279Z,23.23
2022-11-28T09:11:40.562Z,17.65
2022-11-28T09:14:08.613Z,17.58
2022-11-28T09:16:36.579Z,18.60
2022-11-28T09:19:05.141Z,15.20
2022-11-28T09:21:33.198Z,17.13
2022-11-28T09:24:01.022Z,15.55
2022-11-28T09:26:29.937Z,18.20
2022-11-28T09:28:59.180Z,16.67
2022-11-28T09:31:27.204Z,16.23
2022-11-28T09:33:55.736Z,15.15
2022-11-28T09:36:24.929Z,14.02
2022-11-28T09:38:53.093Z,14.18
2022-11-28T09:41:51.433Z,12.45
2022-11-28T09:44:24.840Z,16.33
2022-11-28T09:46:55.896Z,17.02
2022-11-28T09:49:36.759Z,12.93
2022-11-28T09:52:17.429Z,17.13
2022-11-28T09:54:52.606Z,15.38
2022-11-28T09:57:28.693Z,13.80
2022-11-28T09:59:57.938Z,17.40
2022-11-28T10:02:33.873Z,15.70
2022-11-28T10:05:12.106Z,14.43
2022-11-28T10:07:55.150Z,14.82
2022-11-28T10:10:33.064Z,16.05
2022-11-28T10:13:09.690Z,12.65
2022-11-28T10:15:47.066Z,13.68
2022-11-28T10:18:35.262Z,13.60
2022-11-28T10:21:10.381Z,14.57
2022-11-28T10:23:43.481Z,13.10
2022-11-28T10:26:19.344Z,16.75
2022-11-28T10:28:51.108Z,15.32
2022-11-28T10:31:29.418Z,17.88
2022-11-28T10:34:03.864Z,18.50
2022-11-28T10:36:38.864Z,13.18
2022-11-28T10:39:12.401Z,16.02
2022-11-28T10:42:07.157Z,16.50
2022-11-28T10:44:45.810Z,14.38
2022-11-28T10:47:22.653Z,16.08
2022-11-28T10:50:00.878Z,14.77
2022-11-28T10:52:38.171Z,17.60
2022-11-28T10:55:21.689Z,18.45
2022-11-28T10:57:57.399Z,16.75
2022-11-28T11:00:25.936Z,17.50
2022-11-28T11:02:56.703Z,16.92
2022-11-28T11:05:28.044Z,17.20
2022-11-28T11:07:58.631Z,16.35
2022-11-28T11:10:31.568Z,22.73
2022-11-28T11:12:59.555Z,23.83
2022-11-28T11:15:32.521Z,20.80
2022-11-28T11:18:05.634Z,20.70
2022-11-28T11:20:39.585Z,18.30
2022-11-28T11:23:17.520Z,25.52
2022-11-28T11:25:52.912Z,23.73
2022-11-28T11:28:42.554Z,20.42
2022-11-28T11:31:21.610Z,16.92
2022-11-28T11:33:54.188Z,15.95
2022-11-28T11:36:25.540Z,17.60
2022-11-28T11:39:05.159Z,14.95
2022-11-28T11:41:33.555Z,21.75
2022-11-28T11:44:29.751Z,15.07
2022-11-28T11:46:58.819Z,16.08
2022-11-28T11:49:33.051Z,13.32
2022-11-28T11:52:04.864Z,13.32
2022-11-28T11:54:33.007Z,13.88
2022-11-28T11:57:30.531Z,13.32
2022-11-28T11:59:54.290Z,9.20
2022-11-28T12:02:29.070Z,14.07
2022-11-28T12:05:04.932Z,14.40
2022-11-28T12:07:39.560Z,12.57
2022-11-28T12:10:14.075Z,15.38
2022-11-28T12:12:42.360Z,12.75
2022-11-28T12:15:18.362Z,14.45
2022-11-28T12:20:56.293Z,11.23
2022-11-28T12:23:41.784Z,12.10
2022-11-28T12:26:20.012Z,13.48
2022-11-28T12:29:01.618Z,13.63
2022-11-28T12:31:41.717Z,12.20
2022-11-28T12:34:21.921Z,15.88
2022-11-28T12:37:04.025Z,14.07
2022-11-28T12:39:44.027Z,15.48
2022-11-28T12:42:24.870Z,14.93
2022-11-28T12:45:08.386Z,17.02
2022-11-28T12:47:45.499Z,17.85
2022-11-28T12:50:23.522Z,12.80
2022-11-28T12:53:04.750Z,14.98
2022-11-28T12:55:39.922Z,14.35
2022-11-28T12:58:15.577Z,13.85
2022-11-28T13:00:52.002Z,15.90
2022-11-28T13:03:34.393Z,13.50
2022-11-28T13:06:18.125Z,15.73
2022-11-28T13:09:20.225Z,15.77
2022-11-28T13:11:58.175Z,14.35
2022-11-28T13:14:37.684Z,16.52
2022-11-28T13:17:17.354Z,17.40
2022-11-28T13:19:53.211Z,13.93
2022-11-28T13:22:24.699Z,18.35
2022-11-28T13:25:03.627Z,16.45
2022-11-28T13:27:38.653Z,16.27
2022-11-28T13:30:22.241Z,18.02
2022-11-28T13:33:00.585Z,18.35
2022-11-28T13:35:30.425Z,15.35
2022-11-28T13:41:04.595Z,16.85
2022-11-28T13:43:46.575Z,20.27
2022-11-28T13:46:15.629Z,16.90
2022-11-28T13:49:20.250Z,17.50
2022-11-28T13:51:49.024Z,17.55
2022-11-28T13:54:48.717Z,17.50
2022-11-28T13:57:28.941Z,15.68
2022-11-28T14:00:07.487Z,14.82
2022-11-28T14:02:45.554Z,16.88
2022-11-28T14:05:26.952Z,14.00
2022-11-28T14:07:56.355Z,16.73
2022-11-28T14:10:38.931Z,13.30
2022-11-28T14:13:28.478Z,11.55
2022-11-28T14:16:08.123Z,11.90
2022-11-28T14:18:57.130Z,12.32
2022-11-28T14:21:35.029Z,10.32
2022-11-28T14:24:13.222Z,11.60
2022-11-28T14:26:43.107Z,9.52
2022-11-28T14:29:22.390Z,10.45
2022-11-28T14:32:21.681Z,11.75
2022-11-28T14:34:47.489Z,10.68
2022-11-28T14:37:57.628Z,11.52
2022-11-28T14:41:04.111Z,12.02
2022-11-28T14:43:33.921Z,12.80
2022-11-28T14:46:34.320Z,12.32
2022-11-28T14:49:23.089Z,14.82
2022-11-28T14:52:38.394Z,12.05
2022-11-28T14:55:18.885Z,14.70
2022-11-28T14:57:56.880Z,12.80
2022-11-28T15:00:26.736Z,12.68
2022-11-28T15:03:27.133Z,13.85
2022-11-28T15:06:02.343Z,14.75
2022-11-28T15:08:50.023Z,18.15
2022-11-28T15:11:28.131Z,16.38
2022-11-28T15:14:10.693Z,17.25
2022-11-28T15:16:49.919Z,17.92
2022-11-28T15:19:26.974Z,16.67
2022-11-28T15:21:57.228Z,17.15
2022-11-28T15:24:27.329Z,18.67
2022-11-28T15:26:57.775Z,15.00
2022-11-28T15:29:28.339Z,18.80
2022-11-28T15:32:01.381Z,18.98
2022-11-28T15:34:31.432Z,18.05
2022-11-28T15:37:03.697Z,17.33
2022-11-28T15:39:35.086Z,15.85
2022-11-28T15:42:05.888Z,16.75
2022-11-28T15:44:34.149Z,17.85
2022-11-28T15:47:02.158Z,17.10
2022-11-28T15:49:32.429Z,19.77
2022-11-28T15:52:04.120Z,18.55
2022-11-28T15:54:39.176Z,18.75
2022-11-28T15:57:07.938Z,19.33
2022-11-28T15:59:36.543Z,21.35
2022-11-28T16:02:14.009Z,25.83
2022-11-28T16:04:43.434Z,22.92
2022-11-28T16:07:16.444Z,22.08
2022-11-28T16:09:57.173Z,25.20
2022-11-28T16:12:26.852Z,22.38
2022-11-28T16:15:01.420Z,23.60
2022-11-28T16:17:32.583Z,36.92
2022-11-28T16:20:03.700Z,32.22
2022-11-28T16:22:37.481Z,26.52
2022-11-28T16:25:14.973Z,30.90
2022-11-28T16:27:45.685Z,24.35
2022-11-28T16:30:30.175Z,28.35
2022-11-28T16:32:58.928Z,22.77
2022-11-28T16:35:28.824Z,24.60
2022-11-28T16:38:07.229Z,26.05
2022-11-28T16:40:35.260Z,22.73
2022-11-28T16:43:05.177Z,25.65
2022-11-28T16:45:35.023Z,22.42
2022-11-28T16:48:09.484Z,22.77
2022-11-28T16:50:38.463Z,22.30
2022-11-28T16:53:07.636Z,21.50
2022-11-28T16:55:44.356Z,22.83
2022-11-28T16:58:17.837Z,22.67
2022-11-28T17:00:51.877Z,22.92
2022-11-28T17:03:46.218Z,27.20
2022-11-28T17:06:21.546Z,22.13
2022-11-28T17:08:50.903Z,25.30
2022-11-28T17:11:21.889Z,25.05
2022-11-28T17:13:49.753Z,29.15
2022-11-28T17:16:21.890Z,25.88
2022-11-28T17:18:50.458Z,25.67
2022-11-28T17:21:22.215Z,26.98
2022-11-28T17:23:51.402Z,24.98
2022-11-28T17:26:19.269Z,23.95
2022-11-28T17:28:47.084Z,23.83
2022-11-28T17:31:15.147Z,23.40
2022-11-28T17:33:44.942Z,21.13
2022-11-28T17:36:13.421Z,27.90
2022-11-28T17:38:41.321Z,25.63
2022-11-28T17:41:15.188Z,21.00
2022-11-28T17:43:43.363Z,24.23
2022-11-28T17:46:11.514Z,28.73
2022-11-28T17:48:39.546Z,21.98
2022-11-28T17:51:07.370Z,22.77
2022-11-28T17:53:35.244Z,24.00
2022-11-28T17:56:03.266Z,23.70
2022-11-28T17:58:32.978Z,23.90
2022-11-28T18:01:01.278Z,22.95
2022-11-28T18:03:29.916Z,28.23
2022-11-28T18:05:57.884Z,29.20
2022-11-28T18:08:25.740Z,31.33
2022-11-28T18:11:04.324Z,23.75
2022-11-28T18:13:34.076Z,26.83
2022-11-28T18:16:02.127Z,25.63
2022-11-28T18:18:30.455Z,28.83
2022-11-28T18:20:58.670Z,26.88
2022-11-28T18:23:27.887Z,27.17
2022-11-28T18:25:55.803Z,21.08
2022-11-28T18:28:23.755Z,22.55
2022-11-28T18:30:53.358Z,27.05
2022-11-28T18:33:21.243Z,26.38
2022-11-28T18:35:49.712Z,25.02
2022-11-28T18:38:17.531Z,23.48
2022-11-28T18:40:46.953Z,23.30
2022-11-28T18:43:15.026Z,23.65
2022-11-28T18:45:42.980Z,25.42
2022-11-28T18:48:12.908Z,23.23
2022-11-28T18:50:40.769Z,22.73
2022-11-28T18:53:08.621Z,26.48
2022-11-28T18:55:36.541Z,25.52
2022-11-28T18:58:04.372Z,28.15
2022-11-28T19:00:32.188Z,25.67
2022-11-28T19:03:00.241Z,26.92
2022-11-28T19:05:32.788Z,23.50
2022-11-28T19:08:03.106Z,24.05
2022-11-28T19:10:30.985Z,25.80
2022-11-28T19:13:00.931Z,25.23
2022-11-28T19:15:28.695Z,23.70
2022-11-28T19:18:03.888Z,23.92
2022-11-28T19:20:34.263Z,22.75
2022-11-28T19:23:02.725Z,21.25
2022-11-28T19:25:32.501Z,23.77
2022-11-28T19:28:00.445Z,29.17
2022-11-28T19:30:28.373Z,27.20
2022-11-28T19:32:57.271Z,29.42
2022-11-28T19:35:26.340Z,26.27
2022-11-28T19:37:56.470Z,25.40
2022-11-28T19:40:24.609Z,26.67
2022-11-28T19:42:52.628Z,26.83
2022-11-28T19:45:20.704Z,25.95
2022-11-28T19:47:48.664Z,23.23
2022-11-28T19:50:17.430Z,29.33
2022-11-28T19:52:45.607Z,22.92
2022-11-28T19:55:14.820Z,24.73
2022-11-28T19:57:43.913Z,24.35
2022-11-28T20:00:13.773Z,23.80
2022-11-28T20:02:41.744Z,26.05
2022-11-28T20:05:10.680Z,31.10
2022-11-28T20:07:38.587Z,28.48
2022-11-28T20:10:07.800Z,39.78
2022-11-28T20:12:37.097Z,39.58
2022-11-28T20:15:05.765Z,31.90
2022-11-28T20:17:33.550Z,26.90
2022-11-28T20:20:01.334Z,29.63
2022-11-28T20:22:29.145Z,28.00
2022-11-28T20:24:56.990Z,29.92
2022-11-28T20:27:25.063Z,27.23
2022-11-28T20:29:54.541Z,29.65
2022-11-28T20:32:22.746Z,26.63
2022-11-28T20:34:50.605Z,29.83
2022-11-28T20:37:18.446Z,26.98
2022-11-28T20:39:46.844Z,27.40
2022-11-28T20:42:14.887Z,24.67
2022-11-28T20:44:42.745Z,31.17
2022-11-28T20:47:12.063Z,27.80
2022-11-28T20:49:39.948Z,26.13
2022-11-28T20:52:07.833Z,36.33
2022-11-28T20:54:37.780Z,33.15
2022-11-28T20:57:20.972Z,34.95
2022-11-28T20:59:49.504Z,27.40
2022-11-28T21:02:18.720Z,27.73
2022-11-28T21:04:46.697Z,28.75
2022-11-28T21:07:14.613Z,29.38
2022-11-28T21:09:43.135Z,28.67
2022-11-28T21:12:11.286Z,28.73
2022-11-28T21:14:39.122Z,28.02
2022-11-28T21:17:06.921Z,31.08
2022-11-28T21:19:36.138Z,24.70
2022-11-28T21:22:04.023Z,26.48
2022-11-28T21:24:31.900Z,25.95
2022-11-28T21:26:59.684Z,26.13
2022-11-28T21:29:27.589Z,28.02
2022-11-28T21:31:55.650Z,18.60
2022-11-28T21:34:23.681Z,18.40
2022-11-28T21:36:54.567Z,23.50
2022-11-28T21:39:22.957Z,20.40
2022-11-28T21:41:51.972Z,21.10
2022-11-28T21:44:20.184Z,26.42
2022-11-28T21:46:47.981Z,22.15
2022-11-28T21:49:15.842Z,22.88
2022-11-28T21:51:43.701Z,18.13
2022-11-28T21:54:13.398Z,19.63
2022-11-28T21:56:41.886Z,19.38
2022-11-28T21:59:10.349Z,18.02
2022-11-28T22:01:38.356Z,17.15
2022-11-28T22:04:07.186Z,15.32
2022-11-28T22:06:35.109Z,14.90
2022-11-28T22:09:09.201Z,14.30
2022-11-28T22:11:39.343Z,14.57
2022-11-28T22:14:07.675Z,14.15
2022-11-28T22:16:35.996Z,11.75
2022-11-28T22:19:04.269Z,9.60
2022-11-28T22:24:21.031Z,11.32
2022-11-28T22:26:50.516Z,8.32
2022-11-28T22:29:18.338Z,9.88
2022-11-28T22:31:46.191Z,6.47
2022-11-28T22:34:15.412Z,9.77
2022-11-28T22:36:43.246Z,8.40
2022-11-28T22:39:11.644Z,8.50
2022-11-28T22:41:39.859Z,8.38
2022-11-28T22:44:09.078Z,7.75
2022-11-28T22:46:37.354Z,6.57
2022-11-28T22:49:06.872Z,5.97
2022-11-28T22:51:35.044Z,9.90
2022-11-28T22:54:03.362Z,8.63
2022-11-28T22:56:32.800Z,6.80
2022-11-28T22:59:01.678Z,8.38
2022-11-28T23:01:33.068Z,7.18
2022-11-28T23:04:01.574Z,6.50
2022-11-28T23:06:31.583Z,8.70
2022-11-28T23:09:01.272Z,6.32
2022-11-28T23:11:32.642Z,6.05
2022-11-28T23:14:01.892Z,7.35
2022-11-28T23:16:32.716Z,6.47
2022-11-28T23:19:02.910Z,7.63
2022-11-28T23:21:32.551Z,7.65
2022-11-28T23:24:00.513Z,7.55
2022-11-28T23:26:30.691Z,7.10
2022-11-28T23:29:00.645Z,7.65
2022-11-28T23:31:31.547Z,9.82
2022-11-28T23:34:00.256Z,10.18
2022-11-28T23:36:30.468Z,9.85
2022-11-28T23:39:00.341Z,9.05
2022-11-28T23:41:30.086Z,9.48
2022-11-28T23:43:58.766Z,9.43
2022-11-28T23:46:28.089Z,8.95
2022-11-28T23:48:57.604Z,9.65
2022-11-28T23:51:27.202Z,11.43
2022-11-28T23:53:55.514Z,9.15
2022-11-28T23:56:25.680Z,10.60
2022-11-28T23:58:55.902Z,10.02
